Time;durP1;ratioP1;P1;durP2;ratioP2;P2;SDS_P1;SDS_P2;PMS_P1;PMS_P2;Temp;Humidity;BMP_temperature;BMP_pressure;BME280_temperature;BME280_humidity;BME280_pressure;Samples;Min_cycle;Max_cycle;Signal;HPM_P1;HPM_P2
2023/03/27 00:01:10;;;;;;;;;0.00;0.00;;;;;8.57;54.06;100936.88;5074774;28;46713;-76
2023/03/27 00:03:39;;;;;;;;;0.00;0.00;;;;;8.85;53.97;100996.22;5074607;27;46418;-75
2023/03/27 00:06:10;;;;;;;;;2.00;1.00;;;;;8.52;54.37;100958.94;5074383;27;45710;-76
2023/03/27 00:08:39;;;;;;;;;1.75;0.00;;;;;8.82;53.91;101005.03;5075129;27;45616;-75
2023/03/27 00:11:06;;;;;;;;;3.00;0.50;;;;;8.70;54.02;100987.47;5074868;28;45820;-74
2023/03/27 00:13:32;;;;;;;;;0.00;0.00;;;;;8.75;53.89;101008.09;5074906;27;46091;-74
2023/03/27 00:15:58;;;;;;;;;1.75;1.00;;;;;8.70;53.88;101028.41;5074544;27;45491;-75
2023/03/27 00:18:26;;;;;;;;;0.25;0.25;;;;;8.79;54.03;101036.59;5074913;27;45511;-75
2023/03/27 00:20:52;;;;;;;;;1.00;1.00;;;;;8.80;53.97;101055.69;5074235;27;46660;-75
2023/03/27 00:23:21;;;;;;;;;0.00;0.00;;;;;8.74;53.72;101059.50;5074519;27;45605;-74
2023/03/27 00:25:48;;;;;;;;;0.50;0.50;;;;;8.64;53.78;101070.53;5073610;28;45521;-75
2023/03/27 00:28:14;;;;;;;;;0.00;0.00;;;;;8.62;53.99;101069.78;5075349;28;45521;-77
2023/03/27 00:31:09;;;;;;;;;0.25;0.00;;;;;8.28;54.17;101023.78;5090870;27;47105;-76
2023/03/27 00:33:35;;;;;;;;;0.00;0.00;;;;;8.30;54.03;101030.63;5092457;27;48388;-75
2023/03/27 00:36:05;;;;;;;;;1.00;0.00;;;;;8.36;54.33;101052.97;5074193;28;45625;-74
2023/03/27 00:38:31;;;;;;;;;1.75;0.00;;;;;8.55;54.28;101098.00;5075276;27;46204;-74
2023/03/27 00:40:56;;;;;;;;;1.00;0.00;;;;;8.49;54.13;101084.44;5074265;27;46576;-74
2023/03/27 00:43:23;;;;;;;;;1.25;0.00;;;;;8.54;54.03;101104.16;5074526;27;45569;-75
2023/03/27 00:45:53;;;;;;;;;0.00;0.00;;;;;8.48;54.13;101103.63;5089723;27;46164;-74
2023/03/27 00:48:19;;;;;;;;;2.00;0.00;;;;;8.42;54.40;101130.94;5089506;27;45884;-72
2023/03/27 00:50:52;;;;;;;;;0.00;0.00;;;;;8.32;54.30;101104.47;5073965;27;46198;-75
2023/03/27 00:53:25;;;;;;;;;0.00;0.00;;;;;8.35;54.40;101120.00;5074237;27;46003;-75
2023/03/27 00:55:55;;;;;;;;;0.00;0.00;;;;;8.42;54.67;101123.13;5051316;28;45910;-73
2023/03/27 00:58:42;;;;;;;;;0.75;0.00;;;;;8.46;54.39;101118.56;5051595;28;46015;-75
2023/03/27 01:01:11;;;;;;;;;1.25;0.75;;;;;8.46;54.50;101124.63;5051472;28;45647;-73
2023/03/27 01:03:39;;;;;;;;;0.00;0.00;;;;;8.45;54.32;101119.47;5051669;28;46197;-74
2023/03/27 01:06:05;;;;;;;;;0.50;0.00;;;;;8.44;54.14;101134.31;5051601;28;45824;-73
2023/03/27 01:08:35;;;;;;;;;1.00;1.00;;;;;8.19;54.37;101108.66;5051618;28;45801;-74
2023/03/27 01:11:07;;;;;;;;;0.00;0.00;;;;;8.40;54.36;101157.13;5050967;28;46402;-73
2023/03/27 01:13:35;;;;;;;;;1.75;0.75;;;;;8.39;54.44;101157.22;5051264;28;46307;-75
2023/03/27 01:16:09;;;;;;;;;0.00;0.00;;;;;8.31;54.70;101141.13;5051259;28;45656;-73
2023/03/27 01:18:41;;;;;;;;;0.00;0.00;;;;;8.35;54.84;101156.53;5051541;28;45648;-73
2023/03/27 01:21:16;;;;;;;;;1.50;0.00;;;;;8.38;54.79;101156.34;5051264;28;45655;-75
2023/03/27 01:24:20;;;;;;;;;0.75;0.00;;;;;8.37;54.52;101172.94;5051250;28;46204;-73
2023/03/27 01:27:09;;;;;;;;;0.75;0.00;;;;;8.32;54.99;101172.34;5043774;28;45808;-72
2023/03/27 01:30:03;;;;;;;;;1.00;1.00;;;;;8.32;55.12;101168.88;5051591;28;45637;-74
2023/03/27 01:32:41;;;;;;;;;1.25;1.25;;;;;8.32;55.12;101179.31;5054166;28;47089;-74
2023/03/27 01:35:19;;;;;;;;;1.00;0.00;;;;;8.28;55.23;101199.50;5073384;27;46230;-75
2023/03/27 01:38:22;;;;;;;;;1.75;1.00;;;;;8.21;55.59;101185.06;5076047;28;45815;-74
2023/03/27 01:40:53;;;;;;;;;1.00;0.75;;;;;8.11;55.92;101181.25;5076922;27;45582;-73
2023/03/27 01:43:47;;;;;;;;;2.50;1.00;;;;;8.07;56.10;101197.16;5076479;27;47363;-73
2023/03/27 01:46:24;;;;;;;;;0.75;0.00;;;;;8.04;56.21;101199.94;5075240;27;46946;-74
2023/03/27 01:49:02;;;;;;;;;1.00;0.00;;;;;7.98;56.71;101196.72;5092683;27;45937;-74
2023/03/27 01:54:54;;;;;;;;;1.00;0.00;;;;;7.96;56.95;101198.56;5076406;28;45670;-73
2023/03/27 01:57:26;;;;;;;;;2.00;1.25;;;;;7.98;56.86;101201.09;5076726;27;46014;-73
2023/03/27 02:00:10;;;;;;;;;0.25;0.00;;;;;7.93;56.91;101193.50;5076410;27;45563;-73
2023/03/27 02:02:44;;;;;;;;;0.00;0.00;;;;;8.01;56.90;101212.22;5075282;28;45561;-74
2023/03/27 02:05:34;;;;;;;;;1.00;1.00;;;;;7.98;57.14;101215.00;5091665;27;46599;-75
2023/03/27 02:11:26;;;;;;;;;1.00;0.25;;;;;7.88;57.23;101198.09;5076974;28;45563;-74
2023/03/27 02:14:03;;;;;;;;;1.75;1.00;;;;;7.95;57.59;101222.09;5076930;27;45584;-74
2023/03/27 02:16:33;;;;;;;;;1.00;1.00;;;;;7.93;57.67;101226.56;5076495;27;46771;-75
2023/03/27 02:19:03;;;;;;;;;0.00;0.00;;;;;7.89;57.95;101214.56;5076795;27;46022;-72
2023/03/27 02:21:30;;;;;;;;;0.25;0.00;;;;;7.93;57.88;101226.56;5076538;27;45896;-74
2023/03/27 02:27:43;;;;;;;;;1.25;1.00;;;;;7.99;57.75;101234.06;5076255;28;45644;-75
2023/03/27 02:30:24;;;;;;;;;1.75;0.00;;;;;7.93;57.74;101242.22;5076290;27;45761;-74
2023/03/27 02:32:57;;;;;;;;;1.00;0.25;;;;;7.88;58.04;101234.59;5076263;27;45529;-74
2023/03/27 02:35:29;;;;;;;;;0.25;0.25;;;;;7.89;57.94;101240.66;5076687;28;45534;-75
2023/03/27 02:38:24;;;;;;;;;1.25;0.50;;;;;7.91;58.32;101260.56;5076077;27;46537;-72
2023/03/27 02:41:24;;;;;;;;;1.00;0.00;;;;;7.92;58.11;101250.97;5033563;28;46039;-74
2023/03/27 02:43:59;;;;;;;;;0.25;0.00;;;;;7.95;58.19;101245.59;4994087;28;45666;-74
2023/03/27 02:46:39;;;;;;;;;0.50;0.00;;;;;7.93;58.17;101252.66;4994740;28;45678;-76
2023/03/27 02:49:36;;;;;;;;;0.00;0.00;;;;;7.92;58.18;101264.84;4993842;28;47827;-74
2023/03/27 02:52:08;;;;;;;;;0.00;0.00;;;;;7.87;58.29;101258.19;4977525;28;46125;-74
2023/03/27 02:54:39;;;;;;;;;1.00;1.00;;;;;7.79;58.35;101240.28;4993796;28;45691;-72
2023/03/27 02:57:11;;;;;;;;;0.00;0.00;;;;;7.86;57.96;101261.69;4993589;28;45938;-75
2023/03/27 02:59:48;;;;;;;;;1.25;0.00;;;;;7.87;58.27;101260.78;4993926;28;45787;-74
2023/03/27 03:02:23;;;;;;;;;1.00;0.00;;;;;7.84;58.38;101276.56;4994007;28;45903;-74
2023/03/27 03:05:16;;;;;;;;;0.25;0.00;;;;;7.81;58.52;101267.16;4993982;28;45814;-75
2023/03/27 03:10:26;;;;;;;;;1.75;1.00;;;;;7.79;58.54;101283.78;4993482;28;45585;-73
2023/03/27 03:12:52;;;;;;;;;0.50;0.00;;;;;7.79;58.20;101275.94;4992995;28;46329;-78
2023/03/27 03:15:17;;;;;;;;;0.00;0.00;;;;;7.80;57.92;101277.66;4993647;28;45651;-74
2023/03/27 03:17:44;;;;;;;;;1.00;0.75;;;;;7.80;58.12;101281.09;5021143;28;45709;-73
2023/03/27 03:20:11;;;;;;;;;0.50;0.00;;;;;7.76;58.08;101266.53;5066477;28;46333;-75
2023/03/27 03:22:38;;;;;;;;;2.00;0.00;;;;;7.73;57.95;101302.31;5075216;27;46304;-74
2023/03/27 03:25:05;;;;;;;;;1.00;0.75;;;;;7.74;57.86;101288.38;5074928;28;45740;-74
2023/03/27 03:27:32;;;;;;;;;0.00;0.00;;;;;7.76;58.60;101296.97;5075149;27;45941;-73
2023/03/27 03:30:03;;;;;;;;;1.00;0.00;;;;;7.79;58.16;101295.06;5090863;27;46453;-73
2023/03/27 03:32:29;;;;;;;;;0.00;0.00;;;;;7.83;58.25;101295.75;5074965;27;47028;-75
2023/03/27 03:34:55;;;;;;;;;0.25;0.00;;;;;7.82;58.14;101292.31;5075004;27;45753;-74
2023/03/27 03:37:27;;;;;;;;;0.00;0.00;;;;;7.86;57.74;101299.06;5075169;28;45803;-75
2023/03/27 03:39:54;;;;;;;;;0.50;0.00;;;;;7.88;57.83;101314.66;5075087;27;45759;-74
2023/03/27 03:42:20;;;;;;;;;0.00;0.00;;;;;7.83;57.92;101301.81;5074969;27;47197;-74
2023/03/27 03:44:46;;;;;;;;;0.50;0.00;;;;;7.80;57.97;101306.34;5075091;27;45783;-74
2023/03/27 03:47:11;;;;;;;;;0.00;0.00;;;;;7.76;57.94;101312.63;5074764;27;45699;-77
2023/03/27 03:49:37;;;;;;;;;0.25;0.00;;;;;7.78;57.74;101332.50;5090261;27;47156;-76
2023/03/27 03:52:03;;;;;;;;;0.00;0.00;;;;;7.71;57.78;101314.63;5074681;27;46835;-73
2023/03/27 03:54:28;;;;;;;;;0.00;0.00;;;;;7.80;57.72;101329.81;5075148;27;45584;-75
2023/03/27 03:56:54;;;;;;;;;0.00;0.00;;;;;7.79;57.91;101334.19;5074717;28;45492;-74
2023/03/27 03:59:20;;;;;;;;;0.00;0.00;;;;;7.78;58.17;101350.75;5073832;28;46543;-74
2023/03/27 04:01:45;;;;;;;;;1.00;0.00;;;;;7.76;58.16;101343.94;5074839;28;45721;-74
2023/03/27 04:04:11;;;;;;;;;0.00;0.00;;;;;7.76;58.10;101352.59;5074853;27;45510;-74
2023/03/27 04:06:36;;;;;;;;;0.50;0.00;;;;;7.67;58.35;101353.00;5075035;27;45821;-75
2023/03/27 04:09:03;;;;;;;;;0.25;0.00;;;;;7.73;58.38;101362.31;5074145;28;46352;-74
2023/03/27 04:11:28;;;;;;;;;1.00;1.00;;;;;7.66;58.30;101351.34;5074089;27;46358;-75
2023/03/27 04:13:54;;;;;;;;;0.00;0.00;;;;;7.74;58.33;101369.22;5074347;27;45584;-75
2023/03/27 04:16:20;;;;;;;;;0.00;0.00;;;;;7.60;58.51;101367.28;5074777;28;45646;-77
2023/03/27 04:18:49;;;;;;;;;0.00;0.00;;;;;7.66;58.51;101398.28;5074089;28;47383;-72
2023/03/27 04:21:14;;;;;;;;;0.00;0.00;;;;;7.67;58.50;101380.84;5074742;27;45935;-76
2023/03/27 04:23:44;;;;;;;;;0.00;0.00;;;;;7.65;58.74;101385.31;5074450;27;45614;-74
2023/03/27 04:29:33;;;;;;;;;0.00;0.00;;;;;7.68;58.47;101391.22;5074120;28;45560;-73
2023/03/27 04:31:59;;;;;;;;;0.00;0.00;;;;;7.68;58.37;101403.41;5074668;27;46494;-74
2023/03/27 04:34:24;;;;;;;;;0.00;0.00;;;;;7.65;58.52;101406.16;5074493;27;45668;-75
2023/03/27 04:36:50;;;;;;;;;0.75;0.00;;;;;7.60;58.40;101382.91;5074638;28;45560;-76
2023/03/27 04:39:17;;;;;;;;;1.75;1.00;;;;;7.67;58.55;101393.88;5073987;27;47294;-73
2023/03/27 04:41:52;;;;;;;;;2.00;1.00;;;;;7.75;58.50;101412.66;5073645;27;46308;-73
2023/03/27 04:44:18;;;;;;;;;0.00;0.00;;;;;7.72;58.54;101411.00;5074133;27;45619;-75
2023/03/27 04:46:44;;;;;;;;;0.00;0.00;;;;;7.69;58.56;101412.94;5073829;28;45846;-75
2023/03/27 04:49:09;;;;;;;;;1.00;0.25;;;;;7.65;58.57;101442.69;5073968;27;46491;-74
2023/03/27 04:51:35;;;;;;;;;2.75;0.00;;;;;7.59;58.57;101404.69;5073673;27;47368;-75
2023/03/27 04:54:04;;;;;;;;;1.00;0.50;;;;;7.68;58.75;101432.94;5074007;28;45599;-77
2023/03/27 04:59:50;;;;;;;;;1.00;0.00;;;;;7.68;58.65;101448.59;5073846;28;46181;-76
2023/03/27 05:02:15;;;;;;;;;0.00;0.00;;;;;7.63;58.15;101431.47;5073764;27;47159;-75
2023/03/27 05:04:41;;;;;;;;;0.50;0.00;;;;;7.63;58.74;101444.50;5074219;27;45668;-75
2023/03/27 05:07:06;;;;;;;;;1.75;0.00;;;;;7.53;58.71;101434.50;5074001;28;45872;-75
2023/03/27 05:09:31;;;;;;;;;1.75;0.50;;;;;7.51;58.87;101430.25;5088985;27;48326;-74
2023/03/27 05:15:22;;;;;;;;;0.00;0.00;;;;;7.69;58.68;101463.34;5077138;28;45542;-73
2023/03/27 05:17:53;;;;;;;;;1.75;0.00;;;;;7.65;58.74;101459.19;5077440;27;45640;-74
2023/03/27 05:20:26;;;;;;;;;1.00;1.00;;;;;7.59;58.60;101452.47;5076627;27;46432;-76
2023/03/27 05:23:04;;;;;;;;;0.00;0.00;;;;;7.69;58.30;101462.47;5075954;27;46751;-75
2023/03/27 05:25:34;;;;;;;;;1.00;0.00;;;;;7.68;58.65;101477.28;5091519;27;45559;-76
2023/03/27 05:27:59;;;;;;;;;0.75;0.00;;;;;7.67;58.59;101483.41;5076635;27;45551;-76
2023/03/27 05:30:28;;;;;;;;;0.75;0.00;;;;;7.51;58.48;101451.97;5076662;27;46518;-74
2023/03/27 05:32:53;;;;;;;;;1.00;0.00;;;;;7.66;58.58;101486.97;5077281;27;46046;-76
2023/03/27 05:35:28;;;;;;;;;0.25;0.00;;;;;7.62;58.62;101480.16;5076788;27;45604;-76
2023/03/27 05:37:58;;;;;;;;;0.00;0.00;;;;;7.65;58.75;101500.06;5076989;27;45834;-76
2023/03/27 05:40:25;;;;;;;;;0.00;0.00;;;;;7.67;58.68;101480.78;5076682;27;48552;-74
2023/03/27 05:42:58;;;;;;;;;0.00;0.00;;;;;7.66;58.70;101489.56;5077016;27;46192;-74
2023/03/27 05:45:23;;;;;;;;;1.00;0.50;;;;;7.67;58.91;101496.44;5077468;27;45761;-74
2023/03/27 05:47:50;;;;;;;;;2.00;1.00;;;;;7.61;59.02;101493.28;5076725;28;45644;-73
2023/03/27 05:50:18;;;;;;;;;0.00;0.00;;;;;7.49;58.88;101479.88;5076658;28;47317;-74
2023/03/27 05:52:43;;;;;;;;;2.00;0.00;;;;;7.58;59.00;101497.72;5076324;27;46891;-75
2023/03/27 05:55:19;;;;;;;;;;;;;;;;;;;;;
2023/03/27 06:01:09;;;;;;;;;0.00;0.00;;;;;7.66;59.27;101510.44;5077896;28;45656;-70
2023/03/27 06:03:37;;;;;;;;;2.00;0.25;;;;;7.62;59.20;101497.56;5077084;27;46315;-72
2023/03/27 06:06:10;;;;;;;;;0.75;0.00;;;;;7.76;59.18;101510.84;5076917;28;45804;-70
2023/03/27 06:08:36;;;;;;;;;1.00;1.00;;;;;7.72;59.31;101509.31;5076176;27;45817;-73
2023/03/27 06:11:14;;;;;;;;;0.00;0.00;;;;;7.84;59.32;101524.38;5075672;27;45846;-71
2023/03/27 06:13:39;;;;;;;;;0.50;0.50;;;;;7.89;59.02;101533.69;5076135;27;46182;-70
2023/03/27 06:16:06;;;;;;;;;0.25;0.25;;;;;7.87;59.25;101535.53;5076480;28;45517;-72
2023/03/27 06:18:32;;;;;;;;;2.00;1.00;;;;;7.86;59.30;101526.03;5076520;27;45687;-71
2023/03/27 06:20:58;;;;;;;;;1.00;1.00;;;;;7.87;59.39;101530.34;5076349;27;46413;-71
2023/03/27 06:23:23;;;;;;;;;1.50;0.00;;;;;7.86;59.16;101519.94;5075012;28;46961;-70
2023/03/27 06:25:50;;;;;;;;;0.50;0.50;;;;;7.88;59.25;101528.56;5076028;28;45626;-71
2023/03/27 06:31:37;;;;;;;;;1.00;0.00;;;;;7.96;59.68;101548.16;5076395;28;45710;-73
2023/03/27 06:34:02;;;;;;;;;1.50;1.00;;;;;7.98;59.33;101554.19;5075923;27;47055;-71
2023/03/27 06:36:28;;;;;;;;;1.00;1.00;;;;;7.97;59.35;101555.09;5074075;28;45665;-72
2023/03/27 06:38:53;;;;;;;;;0.25;0.00;;;;;7.91;59.60;101555.34;5075914;27;45608;-71
2023/03/27 06:41:19;;;;;;;;;0.75;0.00;;;;;7.96;59.40;101561.22;5075921;28;45463;-71
2023/03/27 06:43:45;;;;;;;;;1.00;0.00;;;;;8.00;59.52;101567.97;5075633;27;47010;-72
2023/03/27 06:46:11;;;;;;;;;2.50;0.00;;;;;7.97;59.30;101562.91;5075709;28;45909;-70
2023/03/27 06:48:38;;;;;;;;;1.75;1.00;;;;;8.04;59.28;101573.94;5075995;27;45525;-71
2023/03/27 06:51:04;;;;;;;;;1.00;1.00;;;;;8.04;59.43;101570.47;5075995;27;45889;-72
2023/03/27 06:53:29;;;;;;;;;0.50;0.00;;;;;8.06;59.21;101576.44;5075780;27;47392;-72
2023/03/27 06:55:56;;;;;;;;;0.50;0.50;;;;;8.05;59.27;101569.53;5075980;27;45786;-70
2023/03/27 07:01:42;;;;;;;;;0.00;0.00;;;;;8.12;59.04;101586.59;5075355;28;45902;-70
2023/03/27 07:04:08;;;;;;;;;1.25;0.75;;;;;8.14;59.22;101593.47;5075606;27;45947;-71
2023/03/27 07:06:33;;;;;;;;;0.00;0.00;;;;;8.15;59.13;101607.38;5075311;27;45577;-71
2023/03/27 07:08:58;;;;;;;;;0.25;0.00;;;;;8.07;59.02;101580.75;5075839;27;45702;-72
2023/03/27 07:11:24;;;;;;;;;2.00;1.75;;;;;8.11;59.31;101597.97;5075274;27;46473;-72
2023/03/27 07:17:11;;;;;;;;;1.00;0.00;;;;;8.13;59.11;101599.59;5075266;28;45522;-71
2023/03/27 07:19:36;;;;;;;;;1.00;1.00;;;;;8.04;59.04;101581.75;5075339;28;45779;-71
2023/03/27 07:22:02;;;;;;;;;1.00;1.00;;;;;8.18;58.90;101599.38;5075324;27;46457;-70
2023/03/27 07:24:27;;;;;;;;;1.50;1.25;;;;;8.21;59.11;101604.47;5075455;28;45676;-72
2023/03/27 07:26:52;;;;;;;;;1.00;1.00;;;;;8.27;59.16;101609.41;5075293;27;45845;-70
2023/03/27 07:29:18;;;;;;;;;1.25;0.00;;;;;8.29;59.01;101603.22;5075494;27;45623;-71
2023/03/27 07:31:43;;;;;;;;;1.00;0.00;;;;;8.34;58.68;101622.16;5074956;27;46514;-70
2023/03/27 07:34:09;;;;;;;;;1.00;1.00;;;;;8.29;58.41;101611.03;5074658;27;47040;-69
2023/03/27 07:36:35;;;;;;;;;1.00;0.25;;;;;8.32;58.07;101623.13;5075156;28;45530;-70
2023/03/27 07:39:01;;;;;;;;;1.00;1.00;;;;;8.31;57.90;101611.84;5075071;28;45685;-70
2023/03/27 07:41:28;;;;;;;;;1.75;1.00;;;;;8.29;57.55;101597.13;5075028;27;45543;-71
2023/03/27 07:47:16;;;;;;;;;1.00;1.00;;;;;8.37;56.68;101601.13;5074881;28;45720;-70
2023/03/27 07:49:42;;;;;;;;;1.00;0.00;;;;;8.39;55.35;101609.72;5074789;27;45782;-71
2023/03/27 07:52:07;;;;;;;;;1.75;1.00;;;;;8.36;54.67;101599.44;5074683;27;47366;-71
2023/03/27 07:54:33;;;;;;;;;0.75;0.00;;;;;8.41;54.62;101607.06;5074875;28;45910;-71
2023/03/27 07:57:00;;;;;;;;;0.00;0.00;;;;;8.40;53.34;101618.41;5074773;28;45558;-71
2023/03/27 08:02:50;;;;;;;;;0.00;0.00;;;;;8.39;52.37;101608.88;5074749;28;45691;-71
2023/03/27 08:05:16;;;;;;;;;0.00;0.00;;;;;8.47;52.26;101626.81;5074801;27;46044;-71
2023/03/27 08:07:44;;;;;;;;;0.00;0.00;;;;;8.52;51.67;101630.06;5074647;27;45490;-71
2023/03/27 08:10:10;;;;;;;;;0.00;0.00;;;;;8.56;52.02;101629.84;5090519;27;45627;-71
2023/03/27 08:12:36;;;;;;;;;0.00;0.00;;;;;8.61;51.04;101632.25;5074707;27;47622;-72
2023/03/27 08:15:03;;;;;;;;;0.00;0.00;;;;;8.63;50.54;101631.28;5074503;27;47087;-69
2023/03/27 08:17:30;;;;;;;;;0.25;0.25;;;;;8.62;50.33;101637.41;5074538;27;45660;-71
2023/03/27 08:19:55;;;;;;;;;0.00;0.00;;;;;8.62;50.00;101634.78;5074527;27;45489;-72
2023/03/27 08:22:21;;;;;;;;;1.00;0.00;;;;;8.62;49.83;101657.44;5074599;27;45519;-71
2023/03/27 08:24:48;;;;;;;;;0.75;0.00;;;;;8.65;49.72;101639.88;5074241;27;46458;-71
2023/03/27 08:27:14;;;;;;;;;0.00;0.00;;;;;8.62;48.60;101650.47;5074329;27;45690;-71
2023/03/27 08:33:01;;;;;;;;;0.00;0.00;;;;;8.71;48.91;101681.38;5073890;28;45487;-71
2023/03/27 08:35:26;;;;;;;;;0.00;0.00;;;;;8.73;47.87;101684.78;5074127;27;46876;-71
2023/03/27 08:37:52;;;;;;;;;0.00;0.00;;;;;8.75;48.22;101663.78;5074340;28;45541;-72
2023/03/27 08:40:26;;;;;;;;;1.00;0.00;;;;;8.78;48.29;101681.94;5074458;28;45588;-71
2023/03/27 08:42:57;;;;;;;;;0.00;0.00;;;;;8.73;48.39;101657.81;5074193;28;45507;-73
2023/03/27 08:45:31;;;;;;;;;0.25;0.00;;;;;8.72;48.60;101662.19;5073764;27;46087;-71
2023/03/27 08:48:15;;;;;;;;;0.50;0.50;;;;;8.86;48.98;101682.44;5073638;27;45686;-72
2023/03/27 08:50:45;;;;;;;;;0.75;0.00;;;;;8.91;48.99;101690.91;5089734;27;45699;-72
2023/03/27 08:53:30;;;;;;;;;0.00;0.00;;;;;8.94;49.05;101698.59;5073793;27;45603;-72
2023/03/27 08:55:55;;;;;;;;;0.00;0.00;;;;;8.78;49.27;101671.50;5071806;28;45909;-71
2023/03/27 08:58:21;;;;;;;;;0.00;0.00;;;;;8.94;49.62;101695.16;5073700;27;45534;-72
2023/03/27 09:01:03;;;;;;;;;1.25;1.00;;;;;8.87;49.59;101698.94;5089362;27;45568;-70
2023/03/27 09:03:35;;;;;;;;;1.00;0.25;;;;;8.91;49.64;101693.50;5073661;27;45645;-72
2023/03/27 09:06:18;;;;;;;;;1.00;1.00;;;;;8.87;50.01;101688.50;5073727;27;46017;-71
2023/03/27 09:08:44;;;;;;;;;0.00;0.00;;;;;9.05;50.46;101719.88;5072701;28;45632;-71
2023/03/27 09:11:12;;;;;;;;;1.75;1.00;;;;;9.10;50.19;101720.50;5073839;28;45720;-70
2023/03/27 09:13:47;;;;;;;;;0.75;0.00;;;;;9.16;50.13;101730.66;5073396;27;46878;-70
2023/03/27 09:16:34;;;;;;;;;2.00;0.50;;;;;9.13;50.16;101736.03;5073580;28;46186;-71
2023/03/27 09:19:14;;;;;;;;;0.00;0.00;;;;;8.91;49.96;101709.19;5073412;27;45467;-72
2023/03/27 09:21:45;;;;;;;;;1.00;1.00;;;;;8.77;50.28;101706.38;5073881;27;45647;-71
2023/03/27 09:24:27;;;;;;;;;1.25;0.75;;;;;8.94;50.59;101727.34;5073594;28;46679;-70
2023/03/27 09:26:54;;;;;;;;;1.00;1.00;;;;;8.96;50.40;101727.28;5073558;27;46344;-73
2023/03/27 09:29:24;;;;;;;;;1.00;1.00;;;;;8.87;50.66;101736.38;5073633;27;45520;-72
2023/03/27 09:31:53;;;;;;;;;1.00;1.00;;;;;8.96;50.56;101735.13;5073636;27;45709;-70
2023/03/27 09:34:28;;;;;;;;;1.00;0.00;;;;;8.88;50.73;101742.47;5073321;27;46438;-70
2023/03/27 09:36:54;;;;;;;;;1.00;0.75;;;;;8.92;50.75;101765.78;5073018;27;46145;-71
2023/03/27 09:39:28;;;;;;;;;2.00;2.00;;;;;8.92;50.86;101768.38;5073126;27;45570;-70
2023/03/27 09:42:15;;;;;;;;;1.25;1.00;;;;;8.93;50.63;101756.16;5073375;27;46055;-70
2023/03/27 09:44:44;;;;;;;;;1.00;0.00;;;;;9.00;50.38;101770.66;5072816;27;47303;-70
2023/03/27 09:47:16;;;;;;;;;0.50;0.50;;;;;9.02;49.78;101768.81;5088332;27;47163;-71
2023/03/27 09:49:55;;;;;;;;;0.75;0.00;;;;;9.07;49.83;101765.06;5073154;27;45517;-72
2023/03/27 09:52:38;;;;;;;;;0.50;0.50;;;;;9.08;48.41;101761.53;5073583;27;45894;-72
2023/03/27 09:55:25;;;;;;;;;0.00;0.00;;;;;9.06;47.79;101759.94;5073070;27;47575;-70
2023/03/27 09:57:57;;;;;;;;;0.75;0.00;;;;;9.07;48.14;101764.25;5089552;27;47080;-72
2023/03/27 10:00:33;;;;;;;;;0.00;0.00;;;;;9.15;47.88;101783.88;5076638;27;45631;-72
2023/03/27 10:03:04;;;;;;;;;0.50;0.00;;;;;9.15;47.76;101760.34;5076908;27;45863;-71
2023/03/27 10:05:31;;;;;;;;;1.00;1.00;;;;;9.16;47.85;101751.59;5076745;27;45550;-70
2023/03/27 10:08:00;;;;;;;;;1.00;0.00;;;;;9.31;47.77;101777.91;5076558;28;46190;-71
2023/03/27 10:10:31;;;;;;;;;1.00;0.75;;;;;9.33;47.05;101774.31;5092184;27;45765;-70
2023/03/27 10:12:59;;;;;;;;;2.00;0.00;;;;;9.23;46.98;101747.75;5076625;27;45762;-72
2023/03/27 10:15:38;;;;;;;;;1.00;1.00;;;;;9.42;46.40;101786.97;5074849;27;47476;-71
2023/03/27 10:18:23;;;;;;;;;1.00;1.00;;;;;9.44;46.30;101781.66;5076092;28;47102;-70
2023/03/27 10:20:53;;;;;;;;;0.00;0.00;;;;;9.50;46.01;101776.16;5076737;27;45821;-70
2023/03/27 10:23:41;;;;;;;;;1.50;0.25;;;;;9.50;45.72;101765.69;5076416;27;45667;-71
2023/03/27 10:26:12;;;;;;;;;1.25;1.00;;;;;9.59;45.91;101771.31;5075940;27;46671;-73
2023/03/27 10:28:41;;;;;;;;;1.50;1.00;;;;;9.64;45.53;101771.94;5076019;27;46156;-71
2023/03/27 10:31:32;;;;;;;;;0.50;0.00;;;;;9.68;45.62;101772.63;5076207;27;45579;-70
2023/03/27 10:34:04;;;;;;;;;0.50;0.00;;;;;9.72;45.00;101782.00;5074650;27;45792;-72
2023/03/27 10:36:36;;;;;;;;;0.00;0.00;;;;;9.67;44.47;101784.84;5075809;27;46511;-72
2023/03/27 10:39:08;;;;;;;;;0.00;0.00;;;;;9.67;44.38;101770.91;5075906;27;46216;-71
2023/03/27 10:41:35;;;;;;;;;0.00;0.00;;;;;9.66;44.16;101787.56;5076118;27;45583;-71
2023/03/27 10:47:28;;;;;;;;;1.00;0.00;;;;;9.72;44.21;101774.16;5075809;28;46079;-73
2023/03/27 10:50:22;;;;;;;;;0.00;0.00;;;;;9.88;44.24;101785.56;5075504;27;46282;-72
2023/03/27 10:53:15;;;;;;;;;0.00;0.00;;;;;9.96;44.25;101780.81;5075393;27;45873;-71
2023/03/27 10:56:04;;;;;;;;;1.00;0.00;;;;;10.03;44.26;101778.75;5075822;27;45717;-70
2023/03/27 10:58:34;;;;;;;;;1.00;1.00;;;;;10.09;44.14;101810.69;5075096;28;46615;-69
2023/03/27 11:04:26;;;;;;;;;0.00;0.00;;;;;9.99;43.17;101791.13;5075571;28;45669;-72
2023/03/27 11:06:56;;;;;;;;;0.00;0.00;;;;;9.99;43.22;101785.88;5075344;28;45877;-72
2023/03/27 11:09:28;;;;;;;;;1.00;0.00;;;;;9.98;42.86;101784.22;5074726;27;46469;-70
2023/03/27 11:12:01;;;;;;;;;1.25;0.00;;;;;9.98;42.60;101788.59;5075501;28;45704;-69
2023/03/27 11:14:35;;;;;;;;;0.00;0.00;;;;;10.00;42.45;101802.44;5075422;27;45712;-71
2023/03/27 11:17:04;;;;;;;;;0.00;0.00;;;;;10.05;42.54;101793.44;5075427;28;45779;-71
2023/03/27 11:19:44;;;;;;;;;0.00;0.00;;;;;10.14;42.65;101792.16;5075161;27;47575;-71
2023/03/27 11:22:21;;;;;;;;;0.00;0.00;;;;;10.24;42.61;101784.72;5075163;27;46768;-71
2023/03/27 11:24:59;;;;;;;;;1.25;0.25;;;;;10.34;42.16;101814.75;5090874;27;45749;-71
2023/03/27 11:27:44;;;;;;;;;0.00;0.00;;;;;10.43;42.29;101799.41;5075271;27;45666;-71
2023/03/27 11:30:31;;;;;;;;;1.00;0.00;;;;;10.52;42.47;101814.66;5074752;27;45820;-71
2023/03/27 11:33:27;;;;;;;;;0.25;0.00;;;;;10.58;42.40;101802.16;5090431;27;46946;-72
2023/03/27 11:36:04;;;;;;;;;0.00;0.00;;;;;10.64;42.19;101807.06;5074737;28;45981;-70
2023/03/27 11:38:36;;;;;;;;;0.00;0.00;;;;;10.58;41.46;101802.97;5075032;27;45759;-70
2023/03/27 11:41:01;;;;;;;;;1.00;0.00;;;;;10.66;41.77;101802.59;5075250;27;45679;-71
2023/03/27 11:43:27;;;;;;;;;0.00;0.00;;;;;10.67;42.07;101797.28;5074845;28;46132;-72
2023/03/27 11:46:07;;;;;;;;;1.00;1.00;;;;;10.71;42.17;101796.19;5074421;27;45596;-72
2023/03/27 11:49:03;;;;;;;;;0.75;0.00;;;;;10.77;41.98;101805.50;5074756;27;45822;-70
2023/03/27 11:52:13;;;;;;;;;1.75;0.25;;;;;10.77;41.76;101805.50;5074978;28;45587;-71
2023/03/27 11:55:05;;;;;;;;;0.00;0.00;;;;;10.78;42.07;101802.81;5032055;28;46088;-71
2023/03/27 11:57:50;;;;;;;;;1.25;0.00;;;;;10.79;41.71;101816.78;5032111;28;45780;-71
2023/03/27 12:04:01;;;;;;;;;0.75;0.00;;;;;10.90;41.38;101822.31;5074488;28;46085;-71
2023/03/27 12:06:36;;;;;;;;;0.00;0.00;;;;;10.91;41.24;101829.22;5074431;27;47136;-72
2023/03/27 12:09:20;;;;;;;;;0.00;0.00;;;;;10.88;40.98;101819.75;5074496;27;45535;-72
2023/03/27 12:11:56;;;;;;;;;0.00;0.00;;;;;10.90;40.74;101830.97;5074896;28;45710;-70
2023/03/27 12:14:38;;;;;;;;;0.00;0.00;;;;;10.94;40.50;101835.16;5074331;27;46673;-71
2023/03/27 12:20:53;;;;;;;;;1.00;0.00;;;;;10.98;40.76;101848.94;5073399;28;45606;-72
2023/03/27 12:23:39;;;;;;;;;0.50;0.50;;;;;10.93;40.29;101830.00;5074418;27;45663;-71
2023/03/27 12:26:25;;;;;;;;;2.00;0.25;;;;;10.92;40.59;101834.38;5074105;27;45845;-71
2023/03/27 12:29:26;;;;;;;;;0.00;0.00;;;;;10.93;40.45;101822.97;5074387;28;45652;-71
2023/03/27 12:32:09;;;;;;;;;1.00;0.00;;;;;10.95;40.25;101830.75;5074147;28;45722;-71
2023/03/27 12:34:52;;;;;;;;;1.00;1.00;;;;;10.97;40.62;101822.78;5089693;27;45477;-70
2023/03/27 12:37:23;;;;;;;;;0.75;0.75;;;;;10.93;40.71;101828.22;5074109;27;46556;-71
2023/03/27 12:39:52;;;;;;;;;0.25;0.25;;;;;10.96;40.38;101831.63;5073872;27;47730;-71
2023/03/27 12:42:40;;;;;;;;;0.00;0.00;;;;;11.02;40.44;101826.03;5074354;28;45530;-70
2023/03/27 12:48:27;;;;;;;;;0.50;0.00;;;;;11.14;40.26;101820.13;5073751;28;45621;-71
2023/03/27 12:50:55;;;;;;;;;1.00;0.25;;;;;11.14;40.33;101817.50;5073901;28;46105;-71
2023/03/27 12:53:29;;;;;;;;;0.00;0.00;;;;;11.27;40.03;101831.66;5074009;27;45641;-71
2023/03/27 12:56:16;;;;;;;;;0.00;0.00;;;;;11.37;40.22;101832.84;5074258;27;45687;-71
2023/03/27 12:58:47;;;;;;;;;0.00;0.00;;;;;11.41;39.88;101816.00;5073755;28;46475;-70
2023/03/27 13:04:59;;;;;;;;;0.00;0.00;;;;;11.45;39.80;101822.75;5073692;28;45692;-70